Time;durP1;ratioP1;P1;durP2;ratioP2;P2;SDS_P1;SDS_P2;PMS_P1;PMS_P2;Temp;Humidity;BMP_temperature;BMP_pressure;BME280_temperature;BME280_humidity;BME280_pressure;Samples;Min_cycle;Max_cycle;Signal;HPM_P1;HPM_P2
2022/01/27 00:01:21;;;;;;;65.38;24.30;;;-1.30;99.90;;;;;;5040987;28;20056;-73
2022/01/27 00:04:03;;;;;;;70.88;24.75;;;-1.30;99.90;;;;;;5067803;28;20024;-71
2022/01/27 00:06:35;;;;;;;63.72;23.75;;;-1.20;99.90;;;;;;5069515;28;20464;-73
2022/01/27 00:09:12;;;;;;;66.85;23.98;;;-1.20;99.90;;;;;;5069096;28;20668;-74
2022/01/27 00:11:39;;;;;;;65.63;24.70;;;-1.20;99.90;;;;;;5073104;28;20068;-74
2022/01/27 00:14:04;;;;;;;67.90;24.20;;;-1.10;99.90;;;;;;5069967;28;20020;-75
2022/01/27 00:16:35;;;;;;;67.97;23.92;;;-1.20;99.90;;;;;;5070387;28;20388;-73
2022/01/27 00:19:00;;;;;;;68.47;24.58;;;-1.30;99.90;;;;;;5070696;28;20048;-73
2022/01/27 00:21:29;;;;;;;74.95;24.13;;;-1.30;99.90;;;;;;5071537;28;20016;-73
2022/01/27 00:23:55;;;;;;;66.75;25.08;;;-1.40;99.90;;;;;;5070593;28;20128;-73
2022/01/27 00:26:21;;;;;;;72.18;24.83;;;-1.40;99.90;;;;;;5071546;28;20111;-74
2022/01/27 00:28:48;;;;;;;74.45;26.40;;;-1.40;99.90;;;;;;5077373;28;20132;-72
2022/01/27 00:31:16;;;;;;;75.63;27.48;;;-1.40;99.90;;;;;;5071249;28;20044;-73
2022/01/27 00:33:43;;;;;;;73.72;24.50;;;-1.30;99.90;;;;;;5071346;28;20020;-73
2022/01/27 00:36:09;;;;;;;75.38;26.13;;;-1.30;99.90;;;;;;5071518;28;20012;-73
2022/01/27 00:38:34;;;;;;;73.93;25.65;;;-1.30;99.90;;;;;;5070908;28;20021;-72
2022/01/27 00:41:00;;;;;;;77.38;27.77;;;-1.30;99.90;;;;;;5069836;28;20477;-73
2022/01/27 00:43:26;;;;;;;75.32;25.42;;;-1.30;99.90;;;;;;5071719;28;20025;-73
2022/01/27 00:45:51;;;;;;;75.70;25.85;;;-1.30;99.90;;;;;;5072670;28;20089;-72
2022/01/27 00:48:17;;;;;;;73.78;26.15;;;-1.30;99.90;;;;;;5071997;28;20528;-73
2022/01/27 00:50:47;;;;;;;79.43;25.73;;;-1.30;99.90;;;;;;5071263;28;20025;-73
2022/01/27 00:54:18;;;;;;;69.68;25.33;;;-1.30;99.90;;;;;;5070449;28;20107;-73
2022/01/27 00:59:01;;;;;;;72.28;25.80;;;-1.30;99.90;;;;;;5069692;28;20531;-73
2022/01/27 01:01:32;;;;;;;77.55;26.13;;;-1.30;99.90;;;;;;5070777;28;20388;-73
2022/01/27 01:04:01;;;;;;;77.45;26.20;;;-1.30;99.90;;;;;;5067221;28;20048;-73
2022/01/27 01:17:05;;;;;;;73.88;25.40;;;-1.10;99.90;;;;;;5066589;28;20047;-74
2022/01/27 01:32:56;;;;;;;70.05;26.15;;;-1.00;99.90;;;;;;5073570;28;20029;-71
2022/01/27 01:35:47;;;;;;;73.47;25.95;;;-1.00;99.90;;;;;;5072379;28;20530;-74
2022/01/27 01:38:18;;;;;;;71.28;26.50;;;-1.10;99.90;;;;;;5073605;28;20024;-73
2022/01/27 01:40:47;;;;;;;71.78;25.00;;;-1.10;99.90;;;;;;5071979;28;20412;-73
2022/01/27 01:43:12;;;;;;;70.85;25.92;;;-1.10;99.90;;;;;;5074115;28;20116;-72
2022/01/27 01:45:38;;;;;;;72.80;24.63;;;-1.10;99.90;;;;;;5074673;28;20096;-73
2022/01/27 01:48:04;;;;;;;61.28;23.60;;;-1.00;99.90;;;;;;5075846;28;20450;-73
2022/01/27 01:50:30;;;;;;;68.88;24.85;;;-1.00;99.90;;;;;;5074803;28;20033;-73
2022/01/27 01:52:56;;;;;;;66.78;25.25;;;-1.00;99.90;;;;;;5074008;28;20020;-72
2022/01/27 01:55:21;;;;;;;59.65;24.60;;;-1.00;99.90;;;;;;5074421;28;20518;-73
2022/01/27 01:57:50;;;;;;;56.88;23.10;;;-1.00;99.90;;;;;;5071132;28;20465;-72
2022/01/27 02:00:16;;;;;;;65.93;24.13;;;-1.00;99.90;;;;;;5074027;28;20108;-73
2022/01/27 02:02:41;;;;;;;65.38;25.00;;;-1.00;99.90;;;;;;5075159;28;20113;-73
2022/01/27 02:05:08;;;;;;;59.58;23.60;;;-1.00;99.90;;;;;;5079173;28;20028;-73
2022/01/27 02:18:25;;;;;;;57.38;23.38;;;-1.10;99.90;;;;;;5065258;28;20032;-73
2022/01/27 02:20:51;;;;;;;55.90;23.02;;;-1.10;99.90;;;;;;5082287;28;20039;-71
2022/01/27 02:23:17;;;;;;;61.97;25.52;;;-1.10;99.90;;;;;;5079333;28;20028;-73
2022/01/27 02:25:43;;;;;;;60.13;24.05;;;-1.10;99.90;;;;;;5089472;28;20032;-73
2022/01/27 02:28:08;;;;;;;54.72;22.08;;;-1.10;99.90;;;;;;5074899;28;20162;-73
2022/01/27 02:30:34;;;;;;;54.38;23.65;;;-1.10;99.90;;;;;;5069072;28;20074;-73
2022/01/27 02:33:00;;;;;;;48.90;21.98;;;-1.10;99.90;;;;;;5080236;28;20087;-73
2022/01/27 02:35:28;;;;;;;53.95;23.17;;;-1.10;99.90;;;;;;5087671;28;20496;-73
2022/01/27 02:37:54;;;;;;;59.45;24.80;;;-1.10;99.90;;;;;;5075622;28;20107;-72
2022/01/27 02:40:34;;;;;;;56.58;24.77;;;-1.10;99.90;;;;;;5086844;28;20024;-73
2022/01/27 02:43:00;;;;;;;51.20;21.50;;;-0.90;99.90;;;;;;5068344;28;20044;-73
2022/01/27 02:45:48;;;;;;;57.35;22.77;;;-0.90;99.90;;;;;;5076773;28;20533;-73
2022/01/27 02:48:14;;;;;;;53.25;23.15;;;-0.90;99.90;;;;;;5059619;28;20047;-73
2022/01/27 02:50:40;;;;;;;56.90;23.83;;;-0.90;99.90;;;;;;5075844;28;20050;-72
2022/01/27 02:53:08;;;;;;;56.50;22.95;;;-0.90;99.90;;;;;;5074242;28;20496;-72
2022/01/27 02:55:34;;;;;;;62.47;23.75;;;-0.90;99.90;;;;;;5088023;28;20484;-72
2022/01/27 02:58:00;;;;;;;52.72;21.15;;;-0.90;99.90;;;;;;5074346;28;20028;-72
2022/01/27 03:00:26;;;;;;;53.35;22.25;;;-1.00;99.90;;;;;;5085659;28;20033;-73
2022/01/27 03:02:51;;;;;;;53.55;21.70;;;-1.00;99.90;;;;;;5082069;28;20085;-70
2022/01/27 03:05:18;;;;;;;50.20;21.75;;;-1.00;99.90;;;;;;5078436;28;20075;-72
2022/01/27 03:07:48;;;;;;;52.50;22.70;;;-1.00;99.90;;;;;;5088937;28;20081;-72
2022/01/27 03:10:15;;;;;;;51.13;22.05;;;-1.00;99.90;;;;;;5075895;28;20069;-72
2022/01/27 03:12:41;;;;;;;50.05;21.77;;;-0.90;99.90;;;;;;5069626;28;20382;-71
2022/01/27 03:15:09;;;;;;;50.25;20.10;;;-0.80;99.90;;;;;;5076110;28;20050;-73
2022/01/27 03:17:35;;;;;;;49.72;20.67;;;-0.90;99.90;;;;;;5075499;28;20040;-72
2022/01/27 03:20:00;;;;;;;53.78;23.10;;;-0.80;99.90;;;;;;5087611;28;20033;-73
2022/01/27 03:22:26;;;;;;;49.10;20.15;;;-0.80;99.90;;;;;;5071384;28;20034;-72
2022/01/27 03:24:51;;;;;;;48.97;21.80;;;-0.80;99.90;;;;;;5063455;28;20084;-71
2022/01/27 03:27:22;;;;;;;49.22;20.90;;;-0.90;99.90;;;;;;5085847;28;20388;-73
2022/01/27 03:29:47;;;;;;;50.88;20.92;;;-0.90;99.90;;;;;;5074300;28;20412;-71
2022/01/27 03:32:13;;;;;;;43.70;20.10;;;-0.90;99.90;;;;;;5086229;28;20024;-73
2022/01/27 03:34:39;;;;;;;47.75;20.35;;;-0.90;99.90;;;;;;5080490;28;20020;-73
2022/01/27 03:37:05;;;;;;;46.60;20.67;;;-1.00;99.90;;;;;;5078582;28;20024;-73
2022/01/27 03:39:30;;;;;;;45.85;21.60;;;-1.00;99.90;;;;;;5087531;28;20479;-72
2022/01/27 03:41:57;;;;;;;45.40;20.60;;;-1.00;99.90;;;;;;5068540;28;20021;-72
2022/01/27 03:44:23;;;;;;;53.03;22.67;;;-1.00;99.90;;;;;;5064542;28;20121;-74
2022/01/27 03:46:50;;;;;;;53.15;21.92;;;-1.00;99.90;;;;;;5074920;28;20120;-70
2022/01/27 03:49:16;;;;;;;49.05;20.85;;;-1.00;99.90;;;;;;5066460;28;20108;-72
2022/01/27 03:51:42;;;;;;;49.03;19.95;;;-1.00;99.90;;;;;;5088041;28;20119;-72
2022/01/27 03:54:08;;;;;;;51.58;21.38;;;-1.10;99.90;;;;;;5075043;28;20024;-73
2022/01/27 03:56:34;;;;;;;49.03;21.00;;;-1.00;99.90;;;;;;5085179;28;20374;-72
2022/01/27 03:59:00;;;;;;;52.83;20.90;;;-1.00;99.90;;;;;;5078733;28;20105;-73
2022/01/27 04:01:26;;;;;;;46.55;20.33;;;-1.00;99.90;;;;;;5086570;28;20035;-73
2022/01/27 04:03:55;;;;;;;50.80;20.70;;;-1.10;99.90;;;;;;5073331;28;20033;-70
2022/01/27 04:06:31;;;;;;;48.72;20.88;;;-1.10;99.90;;;;;;5082663;28;20099;-73
2022/01/27 04:08:56;;;;;;;47.67;21.13;;;-1.00;99.90;;;;;;5072861;28;20524;-72
2022/01/27 04:11:22;;;;;;;44.47;20.70;;;-1.00;99.90;;;;;;5075397;28;20120;-72
2022/01/27 04:13:48;;;;;;;49.97;20.10;;;-1.00;99.90;;;;;;5080509;28;20034;-73
2022/01/27 04:16:13;;;;;;;43.08;19.80;;;-1.00;99.90;;;;;;5085613;28;20028;-73
2022/01/27 04:18:39;;;;;;;43.70;19.15;;;-1.00;99.90;;;;;;5079764;28;20020;-73
2022/01/27 04:21:04;;;;;;;52.83;22.55;;;-1.00;99.90;;;;;;5077541;28;20040;-73
2022/01/27 04:23:30;;;;;;;45.97;21.00;;;-1.10;99.90;;;;;;5086842;28;20380;-73
2022/01/27 04:25:56;;;;;;;45.25;20.35;;;-1.10;99.90;;;;;;5073369;28;20405;-71
2022/01/27 04:28:27;;;;;;;46.63;21.20;;;-1.10;99.90;;;;;;5084702;28;20025;-74
2022/01/27 04:30:55;;;;;;;52.67;22.02;;;-1.10;99.90;;;;;;5080529;28;20038;-70
2022/01/27 04:33:25;;;;;;;50.33;21.70;;;-1.10;99.90;;;;;;5076489;28;20040;-73
2022/01/27 04:35:51;;;;;;;;;;;-1.10;99.90;;;;;;5087909;28;20061;-70
2022/01/27 04:40:59;;;;;;;52.40;21.90;;;-1.10;99.90;;;;;;5078644;28;20032;-73
2022/01/27 04:43:34;;;;;;;53.72;22.75;;;-1.10;99.90;;;;;;5083132;28;20054;-74
2022/01/27 04:49:04;;;;;;;49.13;20.67;;;-1.00;99.90;;;;;;5083917;28;20457;-73
2022/01/27 04:51:23;;;;;;;51.15;21.15;;;-1.00;99.90;;;;;;5082713;28;20090;-73
2022/01/27 04:56:20;;;;;;;51.30;21.10;;;-1.00;99.90;;;;;;5076594;28;20496;-73
2022/01/27 04:58:49;;;;;;;43.80;21.23;;;-1.00;99.90;;;;;;5081573;28;20047;-73
2022/01/27 05:01:17;;;;;;;47.47;21.17;;;-1.00;99.90;;;;;;5080170;28;20116;-72
2022/01/27 05:03:59;;;;;;;47.85;20.27;;;-0.90;99.90;;;;;;5090128;28;20059;-72
2022/01/27 05:06:25;;;;;;;53.15;20.88;;;-0.90;99.90;;;;;;5081561;28;20023;-72
2022/01/27 05:08:50;;;;;;;46.33;21.83;;;-0.90;99.90;;;;;;5083958;28;20028;-70
2022/01/27 05:11:24;;;;;;;50.70;22.20;;;-0.80;99.90;;;;;;5086653;28;20032;-72
2022/01/27 05:13:55;;;;;;;49.97;21.48;;;-0.80;99.90;;;;;;5091095;28;20032;-70
2022/01/27 05:16:21;;;;;;;48.28;21.48;;;-0.80;99.90;;;;;;5069062;28;20040;-72
2022/01/27 05:18:47;;;;;;;49.60;21.77;;;-0.80;99.90;;;;;;5073606;28;20104;-71
2022/01/27 05:21:12;;;;;;;44.42;21.98;;;-0.90;99.90;;;;;;5080287;28;20850;-72
2022/01/27 05:23:38;;;;;;;44.67;21.02;;;-0.90;99.90;;;;;;5075944;28;20041;-72
2022/01/27 05:26:04;;;;;;;43.78;21.05;;;-0.90;99.90;;;;;;5089613;28;20113;-72
2022/01/27 05:28:29;;;;;;;50.53;21.60;;;-0.90;99.90;;;;;;5074877;28;20055;-72
2022/01/27 05:30:56;;;;;;;45.92;20.75;;;-1.00;99.90;;;;;;5082407;28;20385;-73
2022/01/27 05:33:22;;;;;;;45.55;22.08;;;-1.00;99.90;;;;;;5080871;28;20104;-73
2022/01/27 05:35:47;;;;;;;46.50;20.98;;;-1.10;99.90;;;;;;5068764;28;20115;-72
2022/01/27 05:38:17;;;;;;;49.92;22.83;;;-1.10;99.90;;;;;;5088294;28;20457;-73
2022/01/27 05:40:43;;;;;;;45.95;21.65;;;-1.00;99.90;;;;;;5083401;28;20028;-76
2022/01/27 05:43:11;;;;;;;52.28;22.42;;;-1.10;99.90;;;;;;5091021;28;20443;-72
2022/01/27 05:45:37;;;;;;;46.80;21.88;;;-1.10;99.90;;;;;;5075158;28;20095;-71
2022/01/27 05:48:04;;;;;;;50.63;23.13;;;-1.10;99.90;;;;;;5086947;28;20076;-72
2022/01/27 05:50:29;;;;;;;51.13;21.85;;;-1.10;99.90;;;;;;5076520;28;20025;-72
2022/01/27 05:52:55;;;;;;;47.83;22.50;;;-1.00;99.90;;;;;;5084393;28;20027;-72
2022/01/27 05:55:21;;;;;;;43.97;20.75;;;-1.00;99.90;;;;;;5079736;28;20362;-73
2022/01/27 05:57:46;;;;;;;47.92;22.17;;;-1.00;99.90;;;;;;5090566;28;20032;-73
2022/01/27 06:00:12;;;;;;;50.35;23.05;;;-1.00;99.90;;;;;;5078772;28;20020;-73
2022/01/27 06:02:38;;;;;;;52.88;23.67;;;-1.00;99.90;;;;;;5085631;28;20028;-73
2022/01/27 06:05:04;;;;;;;50.55;25.27;;;-0.90;99.90;;;;;;5085445;28;20028;-71
2022/01/27 06:07:31;;;;;;;54.28;25.52;;;-0.80;99.90;;;;;;5072422;28;20032;-73
2022/01/27 06:09:57;;;;;;;53.08;24.83;;;-0.80;99.90;;;;;;5088492;28;20032;-72
2022/01/27 06:12:24;;;;;;;51.00;24.77;;;-0.80;99.90;;;;;;5074199;28;20024;-72
2022/01/27 06:14:49;;;;;;;49.47;23.88;;;-0.80;99.90;;;;;;5083742;28;20107;-70
2022/01/27 06:17:15;;;;;;;52.47;25.80;;;-0.80;99.90;;;;;;5078580;28;20107;-73
2022/01/27 06:19:44;;;;;;;53.05;25.40;;;-0.80;99.90;;;;;;5090305;28;20043;-73
2022/01/27 06:22:14;;;;;;;50.30;24.55;;;-0.80;99.90;;;;;;5077767;28;20552;-73
2022/01/27 06:24:41;;;;;;;54.35;25.45;;;-0.80;99.90;;;;;;5084471;28;20500;-73
2022/01/27 06:27:07;;;;;;;49.97;23.92;;;-0.90;99.90;;;;;;5085588;28;20387;-73
2022/01/27 06:29:33;;;;;;;53.38;23.67;;;-0.90;99.90;;;;;;5073536;28;20041;-73
2022/01/27 06:32:00;;;;;;;49.67;22.33;;;-0.90;99.90;;;;;;5075887;28;20574;-73
2022/01/27 06:34:26;;;;;;;49.33;23.00;;;-0.90;99.90;;;;;;5086780;28;20032;-72
2022/01/27 06:36:52;;;;;;;51.85;23.52;;;-0.90;99.90;;;;;;5083417;28;20389;-72
2022/01/27 06:39:17;;;;;;;47.65;24.35;;;-0.90;99.90;;;;;;5079285;28;20060;-72
2022/01/27 06:41:44;;;;;;;50.70;24.63;;;-0.90;99.90;;;;;;5066253;28;20020;-72
2022/01/27 06:44:10;;;;;;;50.95;23.52;;;-0.90;99.90;;;;;;5088069;28;20029;-73
2022/01/27 06:46:36;;;;;;;50.53;24.38;;;-0.90;99.90;;;;;;5081475;28;20358;-73
2022/01/27 06:49:05;;;;;;;48.33;23.58;;;-0.90;99.90;;;;;;5078020;28;20047;-73
2022/01/27 06:51:31;;;;;;;53.28;23.35;;;-0.90;99.90;;;;;;5086500;28;20074;-73
2022/01/27 06:53:58;;;;;;;50.92;23.25;;;-0.90;99.90;;;;;;5089041;28;20118;-73
2022/01/27 06:56:27;;;;;;;45.22;21.35;;;-0.90;99.90;;;;;;5078750;28;20107;-73
2022/01/27 06:58:53;;;;;;;46.80;21.90;;;-0.90;99.90;;;;;;5081282;28;20127;-73
2022/01/27 07:01:19;;;;;;;48.38;22.17;;;-0.90;99.90;;;;;;5087379;28;20038;-72
2022/01/27 07:03:45;;;;;;;50.75;22.33;;;-0.90;99.90;;;;;;5060472;28;20104;-72
2022/01/27 07:06:12;;;;;;;47.00;20.38;;;-1.00;99.90;;;;;;5082488;28;20464;-72
2022/01/27 07:08:56;;;;;;;47.22;21.50;;;-1.00;99.90;;;;;;5085435;28;20086;-73
2022/01/27 07:11:22;;;;;;;51.78;23.25;;;-1.10;99.90;;;;;;5078157;28;20028;-72
2022/01/27 07:13:48;;;;;;;46.35;21.02;;;-1.10;99.90;;;;;;5060716;28;20112;-72
2022/01/27 07:16:13;;;;;;;47.55;21.27;;;-1.10;99.90;;;;;;5087091;28;20016;-74
2022/01/27 07:18:39;;;;;;;47.92;22.02;;;-1.10;99.90;;;;;;5081429;28;20149;-74
2022/01/27 07:21:05;;;;;;;45.65;21.60;;;-1.00;99.90;;;;;;5079974;28;20075;-75
2022/01/27 07:23:31;;;;;;;50.83;22.05;;;-1.00;99.90;;;;;;5073623;28;20488;-72
2022/01/27 07:25:56;;;;;;;45.35;20.17;;;-1.00;99.90;;;;;;5088624;28;20112;-72
2022/01/27 07:28:22;;;;;;;42.35;20.50;;;-1.00;99.90;;;;;;5078307;28;20039;-74
2022/01/27 07:30:48;;;;;;;44.55;20.30;;;-0.90;99.90;;;;;;5073795;28;20244;-71
2022/01/27 07:33:14;;;;;;;42.97;19.67;;;-0.80;99.90;;;;;;5072205;28;20032;-72
2022/01/27 07:35:41;;;;;;;41.35;20.20;;;-0.90;99.90;;;;;;5073376;28;20020;-73
2022/01/27 07:38:07;;;;;;;47.65;21.10;;;-1.00;99.90;;;;;;5075428;28;20088;-72
2022/01/27 07:40:33;;;;;;;45.63;20.08;;;-1.00;99.90;;;;;;5073166;28;20021;-82
2022/01/27 07:42:58;;;;;;;45.13;20.73;;;-0.90;99.90;;;;;;5072891;28;20024;-73
2022/01/27 07:45:24;;;;;;;49.42;21.88;;;-1.00;99.90;;;;;;5074847;28;20074;-73
2022/01/27 07:47:50;;;;;;;49.97;20.92;;;-0.90;99.90;;;;;;5072703;28;20036;-73
2022/01/27 07:50:15;;;;;;;50.13;21.45;;;-0.90;99.90;;;;;;5073610;28;20024;-73
2022/01/27 07:52:42;;;;;;;49.15;20.90;;;-0.90;99.90;;;;;;5072068;28;20071;-79
2022/01/27 07:55:10;;;;;;;48.53;21.13;;;-0.90;99.90;;;;;;5077809;28;20020;-77
2022/01/27 07:57:36;;;;;;;56.53;25.38;;;-1.00;99.90;;;;;;5078510;28;20672;-78
2022/01/27 08:00:07;;;;;;;58.15;24.23;;;-0.90;99.90;;;;;;5072804;28;20035;-75
2022/01/27 08:02:32;;;;;;;59.20;24.52;;;-0.80;99.90;;;;;;5079034;28;20028;-76
2022/01/27 08:04:58;;;;;;;53.70;22.20;;;-0.80;99.90;;;;;;5066773;28;20115;-77
2022/01/27 08:07:23;;;;;;;54.30;22.95;;;-0.90;99.90;;;;;;5066785;28;20025;-80
2022/01/27 08:09:49;;;;;;;52.47;20.88;;;-1.00;99.90;;;;;;5061603;28;20033;-82
2022/01/27 08:12:15;;;;;;;50.47;21.83;;;-1.00;99.90;;;;;;5073312;28;20032;-82
2022/01/27 08:14:41;;;;;;;54.03;20.55;;;-1.00;99.90;;;;;;5081905;28;20377;-81
2022/01/27 08:17:07;;;;;;;54.88;22.83;;;-1.00;99.90;;;;;;5068311;28;20052;-81
2022/01/27 08:19:33;;;;;;;55.30;20.42;;;-1.00;99.90;;;;;;5075330;28;20028;-77
2022/01/27 08:21:58;;;;;;;57.53;21.70;;;-1.00;99.90;;;;;;5086474;28;20085;-81
2022/01/27 08:24:24;;;;;;;48.90;21.42;;;-1.00;99.90;;;;;;5076469;28;20017;-81
2022/01/27 08:26:53;;;;;;;62.97;23.77;;;-1.10;99.90;;;;;;5081440;28;20028;-80
2022/01/27 08:29:23;;;;;;;57.28;21.70;;;-1.10;99.90;;;;;;5086211;28;20055;-78
2022/01/27 08:34:37;;;;;;;61.25;23.08;;;-1.10;99.90;;;;;;5081969;28;20032;-83
2022/01/27 08:37:06;;;;;;;59.00;22.80;;;-1.10;99.90;;;;;;5091736;28;20051;-81
2022/01/27 08:39:32;;;;;;;56.67;20.55;;;-1.10;99.90;;;;;;5079449;28;20031;-78
2022/01/27 08:41:58;;;;;;;56.15;21.65;;;-1.10;99.90;;;;;;5074457;28;20111;-77
2022/01/27 08:44:24;;;;;;;57.55;21.98;;;-1.10;99.90;;;;;;5081997;28;20024;-78
2022/01/27 08:46:50;;;;;;;63.25;22.45;;;-1.20;99.90;;;;;;5090205;28;20035;-76
2022/01/27 08:49:19;;;;;;;59.80;22.75;;;-1.20;99.90;;;;;;5080513;28;20104;-75
2022/01/27 08:51:44;;;;;;;63.42;24.05;;;-1.20;99.90;;;;;;5091806;28;20036;-75
2022/01/27 08:54:10;;;;;;;60.30;20.98;;;-1.20;99.90;;;;;;5075067;28;20476;-75
2022/01/27 08:56:37;;;;;;;55.35;21.80;;;-1.10;99.90;;;;;;5082915;28;20027;-77
2022/01/27 08:59:03;;;;;;;54.85;22.00;;;-1.00;99.90;;;;;;5066224;28;20048;-73
2022/01/27 09:01:29;;;;;;;58.97;22.35;;;-1.00;99.90;;;;;;5078879;28;20032;-73
2022/01/27 09:03:55;;;;;;;54.60;21.65;;;-0.90;99.90;;;;;;5064591;28;20475;-74
2022/01/27 09:06:21;;;;;;;59.47;23.52;;;-0.80;99.90;;;;;;5070278;28;20039;-74
2022/01/27 09:08:49;;;;;;;63.35;22.80;;;-0.80;99.90;;;;;;5091978;28;20028;-73
2022/01/27 09:11:15;;;;;;;62.40;22.33;;;-0.70;99.90;;;;;;5081307;28;20036;-71
2022/01/27 09:13:42;;;;;;;55.75;22.83;;;-0.70;99.90;;;;;;5090160;28;20028;-74
2022/01/27 09:16:08;;;;;;;62.17;22.50;;;-0.70;99.90;;;;;;5090982;28;20031;-73
2022/01/27 09:18:35;;;;;;;53.97;21.33;;;-0.70;99.90;;;;;;5078785;28;20110;-72
2022/01/27 09:21:05;;;;;;;54.83;20.73;;;-0.50;99.90;;;;;;5079212;28;20519;-71
2022/01/27 09:23:30;;;;;;;;;;;-0.40;99.90;;;;;;5064796;28;20037;-76
2022/01/27 09:26:02;;;;;;;52.90;19.98;;;-0.40;99.90;;;;;;5092161;28;20276;-74
2022/01/27 09:28:28;;;;;;;43.17;18.65;;;-0.30;99.90;;;;;;5085000;28;20044;-73
2022/01/27 09:30:54;;;;;;;37.33;17.02;;;-0.20;99.90;;;;;;5077204;28;20037;-74
2022/01/27 09:33:20;;;;;;;43.78;15.48;;;-0.10;99.90;;;;;;5090904;28;20032;-73
2022/01/27 09:35:45;;;;;;;35.08;15.07;;;-0.10;99.90;;;;;;5075539;28;20020;-73
2022/01/27 09:38:11;;;;;;;36.55;14.82;;;0.00;99.90;;;;;;5075372;28;20077;-72
2022/01/27 09:40:38;;;;;;;34.70;13.55;;;0.10;99.90;;;;;;5069393;28;20051;-75
2022/01/27 09:43:05;;;;;;;22.08;10.70;;;0.30;99.90;;;;;;5087129;28;20027;-72
2022/01/27 09:45:36;;;;;;;22.70;10.68;;;0.40;99.90;;;;;;5081451;28;20545;-74
2022/01/27 09:48:11;;;;;;;27.52;10.48;;;0.50;99.90;;;;;;5073037;28;20024;-75
2022/01/27 09:53:10;;;;;;;22.13;9.90;;;0.70;99.90;;;;;;5073531;28;20040;-72
2022/01/27 09:55:37;;;;;;;25.48;10.43;;;0.80;99.90;;;;;;5086948;28;20043;-68
2022/01/27 09:58:04;;;;;;;24.35;11.65;;;0.90;99.90;;;;;;5075409;28;20021;-70
2022/01/27 10:00:30;;;;;;;25.88;11.40;;;1.00;99.90;;;;;;5085530;28;20447;-73
2022/01/27 10:03:16;;;;;;;29.42;11.20;;;1.00;99.90;;;;;;5075854;28;20104;-73
2022/01/27 10:05:43;;;;;;;24.42;10.98;;;1.00;99.90;;;;;;5075363;28;20515;-72
2022/01/27 10:08:18;;;;;;;27.73;11.25;;;1.10;99.90;;;;;;5089548;28;20418;-73
2022/01/27 10:10:47;;;;;;;23.33;10.45;;;1.10;99.90;;;;;;5078531;28;20051;-70
2022/01/27 10:13:36;;;;;;;29.77;10.77;;;1.10;99.90;;;;;;5077633;28;20478;-71
2022/01/27 10:16:02;;;;;;;23.05;10.68;;;1.20;99.90;;;;;;5089289;28;20093;-73
2022/01/27 10:18:35;;;;;;;23.38;11.52;;;1.20;99.90;;;;;;5071782;28;20032;-73
2022/01/27 10:21:06;;;;;;;26.88;11.90;;;1.20;99.90;;;;;;5060213;28;20107;-70
2022/01/27 10:23:38;;;;;;;28.70;11.02;;;1.30;99.90;;;;;;5074367;28;20128;-71
2022/01/27 10:26:14;;;;;;;30.15;11.35;;;1.30;99.90;;;;;;5089424;28;20027;-68
2022/01/27 10:28:57;;;;;;;22.60;10.13;;;1.40;99.90;;;;;;5062651;28;20052;-72
2022/01/27 10:31:24;;;;;;;25.63;10.75;;;1.40;99.90;;;;;;5063428;28;20038;-69
2022/01/27 10:33:56;;;;;;;25.45;11.40;;;1.40;99.90;;;;;;5071707;28;20210;-70
2022/01/27 10:36:23;;;;;;;24.67;11.88;;;1.40;99.90;;;;;;5089356;28;20611;-70
2022/01/27 10:38:52;;;;;;;24.52;11.57;;;1.50;99.90;;;;;;5068175;28;20032;-69
2022/01/27 10:41:17;;;;;;;24.33;11.38;;;1.50;99.90;;;;;;5092227;28;20074;-69
2022/01/27 10:43:44;;;;;;;24.52;11.20;;;1.60;99.90;;;;;;5090438;28;20020;-67
2022/01/27 10:46:25;;;;;;;25.23;11.10;;;1.60;99.90;;;;;;5082630;28;20040;-70
2022/01/27 10:49:01;;;;;;;24.45;11.00;;;1.60;99.90;;;;;;5070636;28;20037;-72
2022/01/27 10:51:39;;;;;;;23.17;11.18;;;1.60;99.90;;;;;;5070839;28;20119;-69
2022/01/27 10:54:06;;;;;;;22.50;10.88;;;1.70;99.90;;;;;;5073697;28;20036;-72
2022/01/27 10:56:35;;;;;;;21.75;10.73;;;1.80;99.90;;;;;;5077517;28;20085;-72
2022/01/27 10:59:04;;;;;;;21.05;10.63;;;1.80;99.90;;;;;;5072897;28;20075;-72
2022/01/27 11:01:32;;;;;;;23.53;9.80;;;1.90;99.90;;;;;;5069816;28;20036;-73
2022/01/27 11:04:01;;;;;;;22.60;10.05;;;1.90;99.90;;;;;;5073746;28;20027;-72
2022/01/27 11:06:28;;;;;;;18.70;8.93;;;2.00;99.90;;;;;;5072992;28;20479;-73
2022/01/27 11:08:56;;;;;;;19.05;8.65;;;2.10;99.90;;;;;;5072108;28;20492;-73
2022/01/27 11:11:23;;;;;;;22.05;9.43;;;2.20;99.90;;;;;;5071757;28;20097;-73
2022/01/27 11:13:50;;;;;;;15.32;7.85;;;2.30;99.90;;;;;;5069868;28;20016;-71
2022/01/27 11:16:18;;;;;;;15.18;8.20;;;2.40;99.90;;;;;;5082925;28;20060;-70
2022/01/27 11:18:47;;;;;;;23.42;9.15;;;2.50;99.90;;;;;;5089836;28;20032;-70
2022/01/27 11:24:23;;;;;;;19.48;9.23;;;2.50;99.90;;;;;;5064462;28;20484;-72
2022/01/27 11:26:53;;;;;;;22.10;9.38;;;2.60;99.90;;;;;;5066803;28;20025;-72
2022/01/27 11:29:21;;;;;;;22.13;9.10;;;2.60;99.90;;;;;;5070608;28;20048;-72
2022/01/27 11:32:12;;;;;;;18.23;9.57;;;2.60;99.90;;;;;;5071629;28;20086;-72
2022/01/27 11:34:50;;;;;;;18.60;9.10;;;2.60;99.90;;;;;;5065729;28;20103;-73
2022/01/27 11:37:18;;;;;;;19.63;9.57;;;2.60;99.90;;;;;;5070703;28;20253;-73
2022/01/27 11:39:54;;;;;;;18.77;10.15;;;2.60;99.90;;;;;;5076392;28;20012;-73
2022/01/27 11:42:44;;;;;;;18.75;9.43;;;2.60;99.90;;;;;;5074547;28;20086;-73
2022/01/27 11:45:28;;;;;;;21.77;10.80;;;2.60;99.90;;;;;;5082032;28;20470;-73
2022/01/27 11:47:56;;;;;;;19.20;9.55;;;2.60;99.90;;;;;;5069191;28;20037;-73
2022/01/27 11:50:52;;;;;;;21.55;10.43;;;2.60;99.90;;;;;;5082060;28;20066;-73
2022/01/27 11:53:33;;;;;;;25.10;10.68;;;2.60;99.90;;;;;;5068645;28;20032;-72
2022/01/27 11:56:03;;;;;;;24.23;11.15;;;2.50;99.90;;;;;;5079731;28;20032;-72
2022/01/27 11:58:29;;;;;;;19.17;10.80;;;2.50;99.90;;;;;;5074997;28;20020;-73
2022/01/27 12:01:00;;;;;;;21.85;11.25;;;2.50;99.90;;;;;;5062296;28;20044;-73
2022/01/27 12:03:26;;;;;;;21.88;11.15;;;2.50;99.90;;;;;;5067854;28;20056;-70
2022/01/27 12:06:21;;;;;;;22.42;11.63;;;2.50;99.90;;;;;;5052452;28;20067;-71
2022/01/27 12:08:47;;;;;;;22.90;12.20;;;2.60;99.90;;;;;;5068708;28;20112;-74
2022/01/27 12:11:57;;;;;;;23.40;11.77;;;2.50;99.90;;;;;;5076259;28;20503;-72
2022/01/27 12:14:47;;;;;;;29.40;13.00;;;2.60;99.90;;;;;;5056464;28;20479;-71
2022/01/27 12:17:13;;;;;;;26.83;12.33;;;2.60;99.90;;;;;;5065109;28;20484;-72
2022/01/27 12:19:52;;;;;;;27.17;12.90;;;2.70;99.90;;;;;;5073044;28;20674;-71
2022/01/27 12:22:18;;;;;;;22.02;11.70;;;2.80;99.90;;;;;;5068254;28;20034;-71
2022/01/27 12:24:59;;;;;;;23.27;10.98;;;2.90;99.90;;;;;;5072699;28;20086;-71
2022/01/27 12:27:37;;;;;;;22.27;10.77;;;2.90;99.90;;;;;;5071630;28;20095;-72
2022/01/27 12:30:06;;;;;;;21.08;11.02;;;3.00;99.90;;;;;;5086570;28;20056;-71
2022/01/27 12:32:33;;;;;;;22.50;10.40;;;3.10;99.90;;;;;;5079426;28;20056;-72
2022/01/27 12:35:01;;;;;;;20.17;10.48;;;3.20;99.90;;;;;;5076915;28;20476;-74
2022/01/27 12:37:38;;;;;;;22.67;11.52;;;3.30;99.90;;;;;;5077303;28;20024;-70
2022/01/27 12:40:19;;;;;;;25.55;11.77;;;3.30;99.90;;;;;;5071914;28;20021;-73
2022/01/27 12:42:58;;;;;;;24.23;11.05;;;3.30;99.90;;;;;;5069322;28;20052;-71
2022/01/27 12:45:28;;;;;;;24.73;12.40;;;3.40;99.90;;;;;;5075546;28;20012;-72
2022/01/27 12:47:54;;;;;;;30.17;13.40;;;3.40;99.90;;;;;;5079886;28;20046;-74
2022/01/27 12:50:23;;;;;;;29.10;12.93;;;3.40;99.90;;;;;;5070375;28;20242;-72
2022/01/27 12:52:52;;;;;;;25.48;11.60;;;3.40;99.90;;;;;;5067229;28;20033;-74
2022/01/27 12:55:20;;;;;;;24.63;11.10;;;3.40;99.90;;;;;;5072887;28;20416;-73
2022/01/27 12:58:19;;;;;;;21.98;11.63;;;3.40;99.90;;;;;;5084075;28;20388;-76
2022/01/27 13:00:48;;;;;;;21.40;11.02;;;3.50;99.90;;;;;;5081795;28;20054;-71
2022/01/27 13:03:14;;;;;;;23.13;11.40;;;3.50;99.90;;;;;;5069936;28;20500;-70
2022/01/27 13:05:47;;;;;;;23.30;12.40;;;3.40;99.90;;;;;;5074867;28;20049;-70
2022/01/27 13:08:15;;;;;;;24.98;12.25;;;3.40;99.90;;;;;;5071300;28;20028;-73
2022/01/27 13:10:47;;;;;;;21.75;12.38;;;3.40;99.90;;;;;;5070605;28;20040;-72
2022/01/27 13:13:22;;;;;;;20.45;10.95;;;3.50;99.90;;;;;;5089653;28;20058;-73
2022/01/27 13:16:02;;;;;;;25.02;11.60;;;3.50;99.90;;;;;;5074860;28;20464;-73
2022/01/27 13:18:33;;;;;;;25.98;12.05;;;3.50;99.90;;;;;;5077001;28;20020;-72
2022/01/27 13:21:02;;;;;;;22.02;10.95;;;3.50;99.90;;;;;;5075860;28;20119;-71
2022/01/27 13:23:36;;;;;;;22.25;11.60;;;3.40;99.90;;;;;;5090350;28;20487;-70
2022/01/27 13:26:10;;;;;;;20.80;11.40;;;3.50;99.90;;;;;;5072820;28;20365;-69
2022/01/27 13:28:50;;;;;;;23.42;11.05;;;3.60;99.90;;;;;;5077552;28;20449;-70
2022/01/27 13:31:16;;;;;;;24.65;12.98;;;3.60;99.90;;;;;;5089165;28;20032;-71
2022/01/27 13:33:45;;;;;;;25.30;11.55;;;3.60;99.90;;;;;;5075133;28;20032;-73